sensor_id;sensor_type;location;lat;lon;timestamp;P1;durP1;ratioP1;P2;durP2;ratioP2
74177;SDS011;62540;48.456;-4.456;2023-02-21T00:01:27;36.00;;;29.50;;
74177;SDS011;62540;48.456;-4.456;2023-02-21T00:04:11;32.50;;;29.00;;
74177;SDS011;62540;48.456;-4.456;2023-02-21T00:06:54;33.50;;;27.00;;
74177;SDS011;62540;48.456;-4.456;2023-02-21T00:09:38;30.75;;;27.50;;
74177;SDS011;62540;48.456;-4.456;2023-02-21T00:12:23;27.50;;;25.75;;
74177;SDS011;62540;48.456;-4.456;2023-02-21T00:15:07;29.75;;;27.50;;
74177;SDS011;62540;48.456;-4.456;2023-02-21T00:17:51;36.25;;;25.75;;
74177;SDS011;62540;48.456;-4.456;2023-02-21T00:20:35;27.25;;;24.25;;
74177;SDS011;62540;48.456;-4.456;2023-02-21T00:23:19;31.50;;;27.00;;
74177;SDS011;62540;48.456;-4.456;2023-02-21T00:26:03;29.00;;;25.50;;
74177;SDS011;62540;48.456;-4.456;2023-02-21T00:28:47;27.75;;;22.75;;
74177;SDS011;62540;48.456;-4.456;2023-02-21T00:31:30;29.50;;;24.50;;
74177;SDS011;62540;48.456;-4.456;2023-02-21T00:34:14;26.75;;;23.50;;
74177;SDS011;62540;48.456;-4.456;2023-02-21T00:36:58;32.75;;;23.50;;
74177;SDS011;62540;48.456;-4.456;2023-02-21T00:39:42;31.25;;;23.25;;
74177;SDS011;62540;48.456;-4.456;2023-02-21T00:42:26;27.75;;;22.50;;
74177;SDS011;62540;48.456;-4.456;2023-02-21T00:45:10;25.50;;;22.25;;
74177;SDS011;62540;48.456;-4.456;2023-02-21T00:47:54;26.75;;;21.00;;
74177;SDS011;62540;48.456;-4.456;2023-02-21T00:50:38;23.25;;;18.75;;
74177;SDS011;62540;48.456;-4.456;2023-02-21T00:53:25;24.25;;;22.00;;
74177;SDS011;62540;48.456;-4.456;2023-02-21T00:56:09;26.75;;;23.25;;
74177;SDS011;62540;48.456;-4.456;2023-02-21T00:58:53;31.00;;;25.00;;
74177;SDS011;62540;48.456;-4.456;2023-02-21T01:01:37;34.25;;;25.00;;
74177;SDS011;62540;48.456;-4.456;2023-02-21T01:04:21;27.50;;;21.00;;
74177;SDS011;62540;48.456;-4.456;2023-02-21T01:07:05;24.00;;;19.50;;
74177;SDS011;62540;48.456;-4.456;2023-02-21T01:09:50;21.00;;;16.00;;
74177;SDS011;62540;48.456;-4.456;2023-02-21T01:12:33;20.00;;;17.75;;
74177;SDS011;62540;48.456;-4.456;2023-02-21T01:15:17;26.00;;;21.25;;
74177;SDS011;62540;48.456;-4.456;2023-02-21T01:18:02;24.25;;;20.50;;
74177;SDS011;62540;48.456;-4.456;2023-02-21T01:20:45;20.75;;;18.00;;
74177;SDS011;62540;48.456;-4.456;2023-02-21T01:23:30;27.50;;;19.25;;
74177;SDS011;62540;48.456;-4.456;2023-02-21T01:26:15;18.75;;;16.75;;
74177;SDS011;62540;48.456;-4.456;2023-02-21T01:28:59;30.75;;;25.25;;
74177;SDS011;62540;48.456;-4.456;2023-02-21T01:31:42;26.00;;;21.00;;
74177;SDS011;62540;48.456;-4.456;2023-02-21T01:34:26;26.00;;;23.50;;
74177;SDS011;62540;48.456;-4.456;2023-02-21T01:37:10;19.50;;;19.25;;
74177;SDS011;62540;48.456;-4.456;2023-02-21T01:39:54;21.75;;;18.25;;
74177;SDS011;62540;48.456;-4.456;2023-02-21T01:42:38;27.25;;;20.50;;
74177;SDS011;62540;48.456;-4.456;2023-02-21T01:48:24;22.50;;;14.50;;
74177;SDS011;62540;48.456;-4.456;2023-02-21T01:51:11;30.25;;;23.50;;
74177;SDS011;62540;48.456;-4.456;2023-02-21T01:53:57;21.25;;;19.75;;
74177;SDS011;62540;48.456;-4.456;2023-02-21T01:56:42;26.25;;;20.75;;
74177;SDS011;62540;48.456;-4.456;2023-02-21T01:59:26;22.00;;;16.00;;
74177;SDS011;62540;48.456;-4.456;2023-02-21T02:02:22;19.75;;;17.50;;
74177;SDS011;62540;48.456;-4.456;2023-02-21T02:05:28;24.00;;;18.75;;
74177;SDS011;62540;48.456;-4.456;2023-02-21T02:08:12;18.00;;;16.50;;
74177;SDS011;62540;48.456;-4.456;2023-02-21T02:11:04;20.75;;;17.25;;
74177;SDS011;62540;48.456;-4.456;2023-02-21T02:14:00;11.25;;;10.00;;
74177;SDS011;62540;48.456;-4.456;2023-02-21T02:22:38;21.25;;;16.50;;
74177;SDS011;62540;48.456;-4.456;2023-02-21T02:25:31;22.25;;;18.50;;
74177;SDS011;62540;48.456;-4.456;2023-02-21T02:36:49;17.25;;;15.75;;
74177;SDS011;62540;48.456;-4.456;2023-02-21T02:44:38;23.25;;;18.75;;
74177;SDS011;62540;48.456;-4.456;2023-02-21T02:47:10;25.50;;;19.50;;
74177;SDS011;62540;48.456;-4.456;2023-02-21T02:49:43;17.00;;;15.50;;
74177;SDS011;62540;48.456;-4.456;2023-02-21T02:52:09;26.00;;;18.75;;
74177;SDS011;62540;48.456;-4.456;2023-02-21T02:54:35;20.25;;;18.50;;
74177;SDS011;62540;48.456;-4.456;2023-02-21T02:57:01;17.50;;;17.50;;
74177;SDS011;62540;48.456;-4.456;2023-02-21T02:59:34;23.75;;;19.25;;
74177;SDS011;62540;48.456;-4.456;2023-02-21T03:02:17;23.75;;;19.75;;
74177;SDS011;62540;48.456;-4.456;2023-02-21T03:13:24;20.75;;;17.75;;
74177;SDS011;62540;48.456;-4.456;2023-02-21T03:16:12;23.25;;;18.75;;
74177;SDS011;62540;48.456;-4.456;2023-02-21T03:18:49;23.25;;;18.50;;
74177;SDS011;62540;48.456;-4.456;2023-02-21T03:21:24;23.00;;;15.75;;
74177;SDS011;62540;48.456;-4.456;2023-02-21T03:24:07;16.00;;;15.00;;
74177;SDS011;62540;48.456;-4.456;2023-02-21T03:26:36;18.50;;;14.00;;
74177;SDS011;62540;48.456;-4.456;2023-02-21T03:29:04;21.00;;;15.75;;
74177;SDS011;62540;48.456;-4.456;2023-02-21T03:31:34;19.75;;;17.25;;
74177;SDS011;62540;48.456;-4.456;2023-02-21T03:34:07;16.75;;;14.50;;
74177;SDS011;62540;48.456;-4.456;2023-02-21T03:36:33;15.75;;;14.75;;
74177;SDS011;62540;48.456;-4.456;2023-02-21T03:39:00;16.00;;;15.50;;
74177;SDS011;62540;48.456;-4.456;2023-02-21T03:41:25;21.25;;;17.00;;
74177;SDS011;62540;48.456;-4.456;2023-02-21T03:43:51;22.25;;;16.25;;
74177;SDS011;62540;48.456;-4.456;2023-02-21T03:46:16;22.00;;;16.75;;
74177;SDS011;62540;48.456;-4.456;2023-02-21T03:48:41;20.25;;;16.00;;
74177;SDS011;62540;48.456;-4.456;2023-02-21T03:51:07;18.75;;;17.50;;
74177;SDS011;62540;48.456;-4.456;2023-02-21T03:53:32;22.75;;;16.75;;
74177;SDS011;62540;48.456;-4.456;2023-02-21T03:55:57;17.00;;;17.00;;
74177;SDS011;62540;48.456;-4.456;2023-02-21T03:58:23;17.75;;;15.75;;
74177;SDS011;62540;48.456;-4.456;2023-02-21T04:00:48;16.00;;;11.75;;
74177;SDS011;62540;48.456;-4.456;2023-02-21T04:03:15;21.00;;;15.00;;
74177;SDS011;62540;48.456;-4.456;2023-02-21T04:05:41;20.00;;;16.75;;
74177;SDS011;62540;48.456;-4.456;2023-02-21T04:08:06;16.25;;;16.00;;
74177;SDS011;62540;48.456;-4.456;2023-02-21T04:10:32;16.25;;;14.75;;
74177;SDS011;62540;48.456;-4.456;2023-02-21T04:12:57;15.75;;;14.75;;
74177;SDS011;62540;48.456;-4.456;2023-02-21T04:15:22;15.75;;;13.25;;
74177;SDS011;62540;48.456;-4.456;2023-02-21T04:17:48;16.00;;;14.75;;
74177;SDS011;62540;48.456;-4.456;2023-02-21T04:20:13;22.00;;;15.00;;
74177;SDS011;62540;48.456;-4.456;2023-02-21T04:22:39;20.25;;;16.25;;
74177;SDS011;62540;48.456;-4.456;2023-02-21T04:25:05;18.75;;;16.00;;
74177;SDS011;62540;48.456;-4.456;2023-02-21T04:27:31;14.75;;;14.00;;
74177;SDS011;62540;48.456;-4.456;2023-02-21T04:29:56;16.25;;;15.00;;
74177;SDS011;62540;48.456;-4.456;2023-02-21T04:32:21;17.00;;;14.75;;
74177;SDS011;62540;48.456;-4.456;2023-02-21T04:34:47;19.25;;;15.25;;
74177;SDS011;62540;48.456;-4.456;2023-02-21T04:37:12;15.50;;;13.75;;
74177;SDS011;62540;48.456;-4.456;2023-02-21T04:39:39;14.00;;;13.50;;
74177;SDS011;62540;48.456;-4.456;2023-02-21T04:42:04;19.75;;;13.50;;
74177;SDS011;62540;48.456;-4.456;2023-02-21T04:44:30;16.50;;;15.50;;
74177;SDS011;62540;48.456;-4.456;2023-02-21T04:46:55;21.00;;;15.00;;
74177;SDS011;62540;48.456;-4.456;2023-02-21T04:49:20;19.00;;;14.25;;
74177;SDS011;62540;48.456;-4.456;2023-02-21T04:51:49;14.75;;;13.75;;
74177;SDS011;62540;48.456;-4.456;2023-02-21T04:54:14;15.25;;;13.25;;
74177;SDS011;62540;48.456;-4.456;2023-02-21T04:56:39;16.00;;;14.75;;
74177;SDS011;62540;48.456;-4.456;2023-02-21T04:59:05;18.50;;;15.00;;
74177;SDS011;62540;48.456;-4.456;2023-02-21T05:01:30;11.00;;;9.25;;
74177;SDS011;62540;48.456;-4.456;2023-02-21T05:03:56;12.75;;;11.50;;
74177;SDS011;62540;48.456;-4.456;2023-02-21T05:06:23;14.00;;;12.50;;
74177;SDS011;62540;48.456;-4.456;2023-02-21T05:08:50;13.25;;;13.00;;
74177;SDS011;62540;48.456;-4.456;2023-02-21T05:11:16;14.25;;;12.00;;
74177;SDS011;62540;48.456;-4.456;2023-02-21T05:13:43;14.75;;;12.00;;
74177;SDS011;62540;48.456;-4.456;2023-02-21T05:16:09;11.75;;;11.75;;
74177;SDS011;62540;48.456;-4.456;2023-02-21T05:18:35;14.25;;;12.75;;
74177;SDS011;62540;48.456;-4.456;2023-02-21T05:21:03;13.50;;;12.75;;
74177;SDS011;62540;48.456;-4.456;2023-02-21T05:23:30;13.00;;;12.00;;
74177;SDS011;62540;48.456;-4.456;2023-02-21T05:26:03;14.75;;;12.75;;
74177;SDS011;62540;48.456;-4.456;2023-02-21T05:28:37;11.75;;;10.00;;
74177;SDS011;62540;48.456;-4.456;2023-02-21T05:31:03;10.00;;;10.00;;
74177;SDS011;62540;48.456;-4.456;2023-02-21T05:33:28;12.75;;;12.25;;
74177;SDS011;62540;48.456;-4.456;2023-02-21T05:35:54;15.00;;;10.25;;
74177;SDS011;62540;48.456;-4.456;2023-02-21T05:38:20;16.00;;;13.25;;
74177;SDS011;62540;48.456;-4.456;2023-02-21T05:40:47;8.25;;;7.25;;
74177;SDS011;62540;48.456;-4.456;2023-02-21T05:43:12;14.25;;;12.50;;
74177;SDS011;62540;48.456;-4.456;2023-02-21T05:45:39;13.75;;;13.50;;
74177;SDS011;62540;48.456;-4.456;2023-02-21T05:48:04;15.75;;;14.00;;
74177;SDS011;62540;48.456;-4.456;2023-02-21T05:50:30;15.00;;;15.00;;
74177;SDS011;62540;48.456;-4.456;2023-02-21T05:52:56;21.25;;;14.00;;
74177;SDS011;62540;48.456;-4.456;2023-02-21T05:55:22;13.75;;;11.75;;
74177;SDS011;62540;48.456;-4.456;2023-02-21T05:57:47;15.25;;;13.00;;
74177;SDS011;62540;48.456;-4.456;2023-02-21T06:00:15;18.25;;;16.00;;
74177;SDS011;62540;48.456;-4.456;2023-02-21T06:02:45;13.00;;;12.00;;
74177;SDS011;62540;48.456;-4.456;2023-02-21T06:05:11;19.00;;;16.00;;
74177;SDS011;62540;48.456;-4.456;2023-02-21T06:07:37;13.00;;;9.00;;
74177;SDS011;62540;48.456;-4.456;2023-02-21T06:10:02;10.25;;;8.75;;
74177;SDS011;62540;48.456;-4.456;2023-02-21T06:12:29;13.50;;;13.50;;
74177;SDS011;62540;48.456;-4.456;2023-02-21T06:14:54;14.00;;;13.00;;
74177;SDS011;62540;48.456;-4.456;2023-02-21T06:17:20;11.75;;;9.75;;
74177;SDS011;62540;48.456;-4.456;2023-02-21T06:19:45;12.25;;;12.25;;
74177;SDS011;62540;48.456;-4.456;2023-02-21T06:22:11;16.50;;;12.75;;
74177;SDS011;62540;48.456;-4.456;2023-02-21T06:24:36;9.25;;;9.25;;
74177;SDS011;62540;48.456;-4.456;2023-02-21T06:27:02;15.50;;;12.50;;
74177;SDS011;62540;48.456;-4.456;2023-02-21T06:29:27;13.50;;;12.50;;
74177;SDS011;62540;48.456;-4.456;2023-02-21T06:31:56;14.50;;;12.00;;
74177;SDS011;62540;48.456;-4.456;2023-02-21T06:34:23;12.25;;;9.50;;
74177;SDS011;62540;48.456;-4.456;2023-02-21T06:36:52;16.50;;;13.50;;
74177;SDS011;62540;48.456;-4.456;2023-02-21T06:39:18;12.75;;;12.00;;
74177;SDS011;62540;48.456;-4.456;2023-02-21T06:41:44;21.75;;;16.75;;
74177;SDS011;62540;48.456;-4.456;2023-02-21T06:44:10;15.00;;;14.25;;
74177;SDS011;62540;48.456;-4.456;2023-02-21T06:46:35;15.75;;;13.25;;
74177;SDS011;62540;48.456;-4.456;2023-02-21T06:49:02;9.00;;;7.50;;
74177;SDS011;62540;48.456;-4.456;2023-02-21T06:51:32;16.50;;;12.50;;
74177;SDS011;62540;48.456;-4.456;2023-02-21T06:54:02;12.50;;;12.50;;
74177;SDS011;62540;48.456;-4.456;2023-02-21T06:56:28;17.00;;;15.50;;
74177;SDS011;62540;48.456;-4.456;2023-02-21T06:58:53;14.50;;;11.50;;
74177;SDS011;62540;48.456;-4.456;2023-02-21T07:01:19;10.25;;;10.00;;
74177;SDS011;62540;48.456;-4.456;2023-02-21T07:03:45;17.00;;;13.00;;
74177;SDS011;62540;48.456;-4.456;2023-02-21T07:06:11;15.00;;;14.00;;
74177;SDS011;62540;48.456;-4.456;2023-02-21T07:08:37;15.00;;;13.25;;
74177;SDS011;62540;48.456;-4.456;2023-02-21T07:11:02;18.75;;;15.50;;
74177;SDS011;62540;48.456;-4.456;2023-02-21T07:13:29;19.50;;;18.75;;
74177;SDS011;62540;48.456;-4.456;2023-02-21T07:15:55;23.50;;;19.25;;
74177;SDS011;62540;48.456;-4.456;2023-02-21T07:18:20;20.00;;;19.00;;
74177;SDS011;62540;48.456;-4.456;2023-02-21T07:20:46;15.75;;;15.00;;
74177;SDS011;62540;48.456;-4.456;2023-02-21T07:23:11;16.00;;;15.00;;
74177;SDS011;62540;48.456;-4.456;2023-02-21T07:25:36;18.75;;;15.75;;
74177;SDS011;62540;48.456;-4.456;2023-02-21T07:28:02;15.75;;;13.25;;
74177;SDS011;62540;48.456;-4.456;2023-02-21T07:30:28;16.00;;;13.25;;
74177;SDS011;62540;48.456;-4.456;2023-02-21T07:32:53;14.00;;;14.00;;
74177;SDS011;62540;48.456;-4.456;2023-02-21T07:35:19;15.00;;;13.50;;
74177;SDS011;62540;48.456;-4.456;2023-02-21T07:37:44;11.75;;;11.75;;
74177;SDS011;62540;48.456;-4.456;2023-02-21T07:40:10;12.25;;;11.25;;
74177;SDS011;62540;48.456;-4.456;2023-02-21T07:42:35;14.00;;;13.25;;
74177;SDS011;62540;48.456;-4.456;2023-02-21T07:45:01;13.25;;;10.50;;
74177;SDS011;62540;48.456;-4.456;2023-02-21T07:47:27;15.25;;;11.50;;
74177;SDS011;62540;48.456;-4.456;2023-02-21T07:49:53;11.00;;;11.00;;
74177;SDS011;62540;48.456;-4.456;2023-02-21T07:52:19;12.50;;;10.50;;
74177;SDS011;62540;48.456;-4.456;2023-02-21T07:54:45;17.00;;;12.75;;
74177;SDS011;62540;48.456;-4.456;2023-02-21T07:57:11;2.00;;;2.00;;
74177;SDS011;62540;48.456;-4.456;2023-02-21T07:59:36;12.50;;;11.00;;
74177;SDS011;62540;48.456;-4.456;2023-02-21T08:02:02;14.00;;;13.00;;
74177;SDS011;62540;48.456;-4.456;2023-02-21T08:04:28;10.00;;;9.00;;
74177;SDS011;62540;48.456;-4.456;2023-02-21T08:07:00;15.00;;;13.75;;
74177;SDS011;62540;48.456;-4.456;2023-02-21T08:09:26;14.25;;;14.25;;
74177;SDS011;62540;48.456;-4.456;2023-02-21T08:11:51;10.50;;;9.00;;
74177;SDS011;62540;48.456;-4.456;2023-02-21T08:14:16;16.00;;;14.75;;
74177;SDS011;62540;48.456;-4.456;2023-02-21T08:16:42;14.75;;;12.50;;
74177;SDS011;62540;48.456;-4.456;2023-02-21T08:19:07;20.50;;;17.00;;
74177;SDS011;62540;48.456;-4.456;2023-02-21T08:21:33;14.00;;;11.50;;
74177;SDS011;62540;48.456;-4.456;2023-02-21T08:23:59;23.25;;;20.50;;
74177;SDS011;62540;48.456;-4.456;2023-02-21T08:26:24;36.75;;;32.50;;
74177;SDS011;62540;48.456;-4.456;2023-02-21T08:28:50;26.75;;;24.75;;
74177;SDS011;62540;48.456;-4.456;2023-02-21T08:31:15;17.00;;;16.50;;
74177;SDS011;62540;48.456;-4.456;2023-02-21T08:33:41;16.25;;;15.25;;
74177;SDS011;62540;48.456;-4.456;2023-02-21T08:36:06;26.00;;;23.75;;
74177;SDS011;62540;48.456;-4.456;2023-02-21T08:38:32;29.75;;;27.75;;
74177;SDS011;62540;48.456;-4.456;2023-02-21T08:40:57;18.00;;;16.50;;
74177;SDS011;62540;48.456;-4.456;2023-02-21T08:43:23;15.00;;;14.75;;
74177;SDS011;62540;48.456;-4.456;2023-02-21T08:45:49;18.25;;;15.25;;
74177;SDS011;62540;48.456;-4.456;2023-02-21T08:48:14;12.25;;;12.00;;
74177;SDS011;62540;48.456;-4.456;2023-02-21T08:50:40;14.75;;;13.50;;
74177;SDS011;62540;48.456;-4.456;2023-02-21T08:53:05;8.25;;;7.00;;
74177;SDS011;62540;48.456;-4.456;2023-02-21T08:55:31;12.25;;;12.25;;
74177;SDS011;62540;48.456;-4.456;2023-02-21T08:57:56;17.00;;;14.50;;
74177;SDS011;62540;48.456;-4.456;2023-02-21T09:00:23;12.00;;;10.25;;
74177;SDS011;62540;48.456;-4.456;2023-02-21T09:02:53;14.25;;;13.75;;
74177;SDS011;62540;48.456;-4.456;2023-02-21T09:05:23;16.00;;;14.25;;
74177;SDS011;62540;48.456;-4.456;2023-02-21T09:07:51;16.25;;;14.75;;
74177;SDS011;62540;48.456;-4.456;2023-02-21T09:10:19;13.00;;;12.00;;
74177;SDS011;62540;48.456;-4.456;2023-02-21T09:12:45;15.50;;;14.25;;
74177;SDS011;62540;48.456;-4.456;2023-02-21T09:15:13;14.25;;;13.50;;
74177;SDS011;62540;48.456;-4.456;2023-02-21T09:17:39;17.50;;;10.25;;
74177;SDS011;62540;48.456;-4.456;2023-02-21T09:20:06;13.50;;;12.50;;
74177;SDS011;62540;48.456;-4.456;2023-02-21T09:22:35;13.25;;;12.00;;
74177;SDS011;62540;48.456;-4.456;2023-02-21T09:25:01;19.50;;;15.00;;
74177;SDS011;62540;48.456;-4.456;2023-02-21T09:27:27;16.50;;;15.25;;
74177;SDS011;62540;48.456;-4.456;2023-02-21T09:30:03;17.75;;;16.75;;
74177;SDS011;62540;48.456;-4.456;2023-02-21T09:32:38;18.00;;;16.00;;
74177;SDS011;62540;48.456;-4.456;2023-02-21T09:35:04;15.50;;;15.50;;
74177;SDS011;62540;48.456;-4.456;2023-02-21T09:37:30;15.00;;;14.75;;
74177;SDS011;62540;48.456;-4.456;2023-02-21T09:39:56;17.75;;;16.50;;
74177;SDS011;62540;48.456;-4.456;2023-02-21T09:42:23;14.50;;;13.00;;
74177;SDS011;62540;48.456;-4.456;2023-02-21T09:44:53;15.00;;;13.50;;
74177;SDS011;62540;48.456;-4.456;2023-02-21T09:47:26;22.00;;;18.00;;
74177;SDS011;62540;48.456;-4.456;2023-02-21T09:50:00;15.50;;;13.75;;
74177;SDS011;62540;48.456;-4.456;2023-02-21T09:52:30;14.25;;;12.25;;
74177;SDS011;62540;48.456;-4.456;2023-02-21T09:55:01;17.25;;;15.50;;
74177;SDS011;62540;48.456;-4.456;2023-02-21T09:57:32;16.25;;;14.25;;
74177;SDS011;62540;48.456;-4.456;2023-02-21T09:59:58;17.75;;;16.25;;
74177;SDS011;62540;48.456;-4.456;2023-02-21T10:08:05;16.75;;;15.50;;
74177;SDS011;62540;48.456;-4.456;2023-02-21T10:10:46;16.00;;;15.00;;
74177;SDS011;62540;48.456;-4.456;2023-02-21T10:13:21;17.50;;;17.50;;
74177;SDS011;62540;48.456;-4.456;2023-02-21T10:21:28;22.00;;;19.00;;
74177;SDS011;62540;48.456;-4.456;2023-02-21T10:23:57;19.75;;;17.50;;
74177;SDS011;62540;48.456;-4.456;2023-02-21T10:26:29;17.25;;;16.25;;
74177;SDS011;62540;48.456;-4.456;2023-02-21T10:28:59;20.50;;;19.50;;
74177;SDS011;62540;48.456;-4.456;2023-02-21T10:34:02;26.50;;;24.75;;
74177;SDS011;62540;48.456;-4.456;2023-02-21T10:36:31;22.50;;;21.00;;
74177;SDS011;62540;48.456;-4.456;2023-02-21T10:42:08;18.00;;;18.00;;
74177;SDS011;62540;48.456;-4.456;2023-02-21T10:44:41;21.75;;;18.50;;
74177;SDS011;62540;48.456;-4.456;2023-02-21T10:47:08;20.25;;;19.00;;
74177;SDS011;62540;48.456;-4.456;2023-02-21T10:50:16;20.50;;;19.25;;
74177;SDS011;62540;48.456;-4.456;2023-02-21T10:52:56;19.00;;;18.75;;
74177;SDS011;62540;48.456;-4.456;2023-02-21T10:55:21;21.50;;;17.25;;
74177;SDS011;62540;48.456;-4.456;2023-02-21T10:57:54;21.00;;;20.00;;
74177;SDS011;62540;48.456;-4.456;2023-02-21T11:02:52;20.50;;;20.00;;
74177;SDS011;62540;48.456;-4.456;2023-02-21T11:05:20;20.75;;;17.50;;
74177;SDS011;62540;48.456;-4.456;2023-02-21T11:08:06;19.75;;;18.50;;
74177;SDS011;62540;48.456;-4.456;2023-02-21T11:10:39;18.75;;;18.00;;
74177;SDS011;62540;48.456;-4.456;2023-02-21T11:13:19;20.75;;;18.75;;
74177;SDS011;62540;48.456;-4.456;2023-02-21T11:15:46;21.50;;;20.75;;
74177;SDS011;62540;48.456;-4.456;2023-02-21T11:20:37;24.50;;;23.00;;
74177;SDS011;62540;48.456;-4.456;2023-02-21T11:23:03;21.25;;;19.25;;
74177;SDS011;62540;48.456;-4.456;2023-02-21T11:25:32;26.00;;;20.75;;
74177;SDS011;62540;48.456;-4.456;2023-02-21T11:33:23;26.50;;;24.50;;
74177;SDS011;62540;48.456;-4.456;2023-02-21T11:35:49;27.25;;;23.00;;
74177;SDS011;62540;48.456;-4.456;2023-02-21T11:38:30;25.75;;;23.00;;
74177;SDS011;62540;48.456;-4.456;2023-02-21T11:41:00;21.50;;;18.00;;
74177;SDS011;62540;48.456;-4.456;2023-02-21T11:43:28;25.25;;;22.75;;
74177;SDS011;62540;48.456;-4.456;2023-02-21T11:46:10;24.00;;;21.00;;
74177;SDS011;62540;48.456;-4.456;2023-02-21T11:51:12;19.50;;;17.75;;
74177;SDS011;62540;48.456;-4.456;2023-02-21T11:53:44;20.00;;;19.00;;
74177;SDS011;62540;48.456;-4.456;2023-02-21T12:01:31;25.25;;;23.00;;
74177;SDS011;62540;48.456;-4.456;2023-02-21T12:04:12;24.25;;;24.25;;
74177;SDS011;62540;48.456;-4.456;2023-02-21T12:06:56;25.25;;;24.00;;
74177;SDS011;62540;48.456;-4.456;2023-02-21T12:09:52;23.00;;;21.75;;
74177;SDS011;62540;48.456;-4.456;2023-02-21T12:12:51;27.00;;;25.50;;
74177;SDS011;62540;48.456;-4.456;2023-02-21T12:23:20;23.75;;;22.00;;
74177;SDS011;62540;48.456;-4.456;2023-02-21T12:34:24;21.50;;;19.75;;
74177;SDS011;62540;48.456;-4.456;2023-02-21T12:37:03;21.50;;;19.00;;
74177;SDS011;62540;48.456;-4.456;2023-02-21T12:42:33;23.50;;;21.75;;
74177;SDS011;62540;48.456;-4.456;2023-02-21T12:47:40;25.25;;;23.50;;
74177;SDS011;62540;48.456;-4.456;2023-02-21T12:50:20;24.00;;;20.00;;
74177;SDS011;62540;48.456;-4.456;2023-02-21T12:55:48;27.00;;;23.00;;
74177;SDS011;62540;48.456;-4.456;2023-02-21T12:58:22;24.75;;;24.50;;
74177;SDS011;62540;48.456;-4.456;2023-02-21T13:01:11;25.25;;;22.25;;
74177;SDS011;62540;48.456;-4.456;2023-02-21T13:06:35;23.00;;;22.75;;
74177;SDS011;62540;48.456;-4.456;2023-02-21T13:17:13;24.75;;;24.00;;
74177;SDS011;62540;48.456;-4.456;2023-02-21T13:19:41;23.50;;;22.50;;
74177;SDS011;62540;48.456;-4.456;2023-02-21T13:27:50;28.50;;;21.75;;
74177;SDS011;62540;48.456;-4.456;2023-02-21T13:32:52;27.25;;;25.75;;
74177;SDS011;62540;48.456;-4.456;2023-02-21T13:35:41;30.00;;;28.50;;
74177;SDS011;62540;48.456;-4.456;2023-02-21T13:38:07;27.00;;;25.25;;
74177;SDS011;62540;48.456;-4.456;2023-02-21T13:43:22;26.00;;;23.75;;
74177;SDS011;62540;48.456;-4.456;2023-02-21T13:45:50;25.25;;;22.75;;
74177;SDS011;62540;48.456;-4.456;2023-02-21T13:48:22;25.25;;;23.00;;
74177;SDS011;62540;48.456;-4.456;2023-02-21T13:50:51;25.75;;;25.00;;
74177;SDS011;62540;48.456;-4.456;2023-02-21T13:53:29;26.75;;;23.75;;
74177;SDS011;62540;48.456;-4.456;2023-02-21T13:58:37;23.75;;;23.00;;
74177;SDS011;62540;48.456;-4.456;2023-02-21T14:07:15;28.25;;;25.75;;
74177;SDS011;62540;48.456;-4.456;2023-02-21T14:09:40;27.75;;;24.75;;
74177;SDS011;62540;48.456;-4.456;2023-02-21T14:12:09;25.00;;;24.25;;
74177;SDS011;62540;48.456;-4.456;2023-02-21T14:14:37;25.25;;;23.00;;
74177;SDS011;62540;48.456;-4.456;2023-02-21T14:17:08;21.50;;;19.75;;
74177;SDS011;62540;48.456;-4.456;2023-02-21T14:24:35;25.00;;;23.00;;
74177;SDS011;62540;48.456;-4.456;2023-02-21T14:27:48;22.25;;;21.50;;
74177;SDS011;62540;48.456;-4.456;2023-02-21T14:32:24;25.00;;;24.50;;
74177;SDS011;62540;48.456;-4.456;2023-02-21T14:35:25;26.25;;;23.00;;
74177;SDS011;62540;48.456;-4.456;2023-02-21T14:38:17;23.25;;;21.25;;
74177;SDS011;62540;48.456;-4.456;2023-02-21T14:46:31;21.50;;;19.75;;
74177;SDS011;62540;48.456;-4.456;2023-02-21T15:03:22;19.75;;;19.00;;
74177;SDS011;62540;48.456;-4.456;2023-02-21T15:08:25;25.25;;;23.00;;
74177;SDS011;62540;48.456;-4.456;2023-02-21T15:11:00;24.50;;;23.00;;
74177;SDS011;62540;48.456;-4.456;2023-02-21T15:16:05;21.25;;;19.50;;
74177;SDS011;62540;48.456;-4.456;2023-02-21T15:19:14;30.00;;;27.25;;
74177;SDS011;62540;48.456;-4.456;2023-02-21T15:21:26;24.75;;;23.75;;
74177;SDS011;62540;48.456;-4.456;2023-02-21T15:24:02;23.25;;;21.75;;
74177;SDS011;62540;48.456;-4.456;2023-02-21T15:26:38;27.00;;;23.25;;
74177;SDS011;62540;48.456;-4.456;2023-02-21T15:29:08;22.25;;;21.50;;
74177;SDS011;62540;48.456;-4.456;2023-02-21T15:31:42;22.75;;;21.25;;
74177;SDS011;62540;48.456;-4.456;2023-02-21T15:34:15;23.00;;;23.00;;
74177;SDS011;62540;48.456;-4.456;2023-02-21T15:36:44;24.75;;;23.75;;
74177;SDS011;62540;48.456;-4.456;2023-02-21T15:39:21;30.25;;;26.75;;
74177;SDS011;62540;48.456;-4.456;2023-02-21T15:41:48;27.50;;;26.25;;
74177;SDS011;62540;48.456;-4.456;2023-02-21T15:47:34;33.00;;;29.50;;
74177;SDS011;62540;48.456;-4.456;2023-02-21T15:49:37;28.50;;;26.25;;
74177;SDS011;62540;48.456;-4.456;2023-02-21T15:52:24;25.25;;;23.75;;
74177;SDS011;62540;48.456;-4.456;2023-02-21T15:55:11;26.75;;;24.00;;
74177;SDS011;62540;48.456;-4.456;2023-02-21T15:57:42;29.00;;;27.50;;
74177;SDS011;62540;48.456;-4.456;2023-02-21T16:00:25;31.75;;;29.00;;
74177;SDS011;62540;48.456;-4.456;2023-02-21T16:05:52;19.75;;;18.75;;
74177;SDS011;62540;48.456;-4.456;2023-02-21T16:08:19;28.50;;;27.50;;
74177;SDS011;62540;48.456;-4.456;2023-02-21T16:10:45;27.25;;;25.00;;
74177;SDS011;62540;48.456;-4.456;2023-02-21T16:13:11;30.25;;;28.00;;
74177;SDS011;62540;48.456;-4.456;2023-02-21T16:15:38;32.50;;;29.75;;
74177;SDS011;62540;48.456;-4.456;2023-02-21T16:18:15;44.00;;;38.00;;
74177;SDS011;62540;48.456;-4.456;2023-02-21T16:20:43;47.00;;;39.50;;
74177;SDS011;62540;48.456;-4.456;2023-02-21T16:25:57;46.00;;;38.50;;
74177;SDS011;62540;48.456;-4.456;2023-02-21T16:28:39;40.75;;;35.00;;
74177;SDS011;62540;48.456;-4.456;2023-02-21T16:31:06;43.00;;;36.25;;
74177;SDS011;62540;48.456;-4.456;2023-02-21T16:33:33;39.25;;;32.00;;
74177;SDS011;62540;48.456;-4.456;2023-02-21T16:36:03;35.00;;;32.00;;
74177;SDS011;62540;48.456;-4.456;2023-02-21T16:38:30;42.50;;;33.00;;
74177;SDS011;62540;48.456;-4.456;2023-02-21T16:40:56;34.25;;;31.00;;
74177;SDS011;62540;48.456;-4.456;2023-02-21T16:43:23;39.25;;;33.25;;
74177;SDS011;62540;48.456;-4.456;2023-02-21T16:45:51;45.50;;;37.75;;
74177;SDS011;62540;48.456;-4.456;2023-02-21T16:48:21;37.75;;;33.00;;
74177;SDS011;62540;48.456;-4.456;2023-02-21T16:50:52;50.25;;;38.50;;
74177;SDS011;62540;48.456;-4.456;2023-02-21T16:53:20;51.75;;;42.75;;
74177;SDS011;62540;48.456;-4.456;2023-02-21T16:55:47;49.75;;;41.50;;
74177;SDS011;62540;48.456;-4.456;2023-02-21T17:00:50;44.00;;;35.25;;
74177;SDS011;62540;48.456;-4.456;2023-02-21T17:03:21;36.00;;;32.25;;
74177;SDS011;62540;48.456;-4.456;2023-02-21T17:05:47;34.00;;;30.25;;
74177;SDS011;62540;48.456;-4.456;2023-02-21T17:08:15;32.50;;;30.25;;
74177;SDS011;62540;48.456;-4.456;2023-02-21T17:10:40;33.75;;;30.25;;
74177;SDS011;62540;48.456;-4.456;2023-02-21T17:13:06;40.25;;;33.00;;
74177;SDS011;62540;48.456;-4.456;2023-02-21T17:15:31;35.25;;;30.25;;
74177;SDS011;62540;48.456;-4.456;2023-02-21T17:17:57;33.75;;;30.50;;
74177;SDS011;62540;48.456;-4.456;2023-02-21T17:20:23;27.50;;;24.50;;